Anderson, South Dakota
Current Conditions -  °F | °C
As of 10:53 AM on Sunday 21 Dec 2014 (Local Time) from KHEI Reporting Station
Few Clouds Few Clouds  
Wind Chill: -1°   Ceiling: Unl
Heat Index:   Visibility: 10mi
Dew Point: -2°   Wind: 9mph
Humidity: 70%   Direction: 130°SE
Pressure: 29.42"   Gusts: NA
Location:  45.2919°N, 102.298°W
Report Text: KHEI 211753Z AUTO 13008KT 10SM FEW080 03/M02 A2942 RMK AO2 SLP987 T00281022 10028 21067 58028
Loading
Personal Weather Stations






























Interactive Weather Map New forecast layout! Learn more

10-Day Weather Forecast

Advertisements
Track Severe Weather on mobile